createdAt,value
2017-09-04T00:00:20.602Z,970.30
2017-09-04T00:01:21.289Z,970.29
2017-09-04T00:02:22.229Z,970.34
2017-09-04T00:03:22.915Z,970.36
2017-09-04T00:04:23.613Z,970.36
2017-09-04T00:05:24.308Z,970.35
2017-09-04T00:06:24.997Z,970.33
2017-09-04T00:07:25.939Z,970.35
2017-09-04T00:08:26.631Z,970.34
2017-09-04T00:09:27.325Z,970.31
2017-09-04T00:10:28.018Z,970.32
2017-09-04T00:11:28.706Z,970.31
2017-09-04T00:12:29.401Z,970.36
2017-09-04T00:13:30.089Z,970.29
2017-09-04T00:14:30.777Z,970.32
2017-09-04T00:15:31.463Z,970.31
2017-09-04T00:16:32.154Z,970.29
2017-09-04T00:17:33.091Z,970.31
2017-09-04T00:18:33.780Z,970.29
2017-09-04T00:19:34.472Z,970.28
2017-09-04T00:20:35.158Z,970.33
2017-09-04T00:21:35.855Z,970.31
2017-09-04T00:22:36.792Z,970.28
2017-09-04T00:23:37.477Z,970.29
2017-09-04T00:24:38.164Z,970.29
2017-09-04T00:25:38.850Z,970.30
2017-09-04T00:26:39.552Z,970.30
2017-09-04T00:27:40.588Z,970.30
2017-09-04T00:28:41.276Z,970.23
2017-09-04T00:29:41.963Z,970.29
2017-09-04T00:30:42.653Z,970.27
2017-09-04T00:31:43.344Z,970.26
2017-09-04T00:32:44.286Z,970.26
2017-09-04T00:33:44.984Z,970.25
2017-09-04T00:34:45.671Z,970.30
2017-09-04T00:35:46.354Z,970.25
2017-09-04T00:36:47.044Z,970.24
2017-09-04T00:37:48.035Z,970.24
2017-09-04T00:38:48.729Z,970.26
2017-09-04T00:39:49.414Z,970.22
2017-09-04T00:40:50.109Z,970.27
2017-09-04T00:41:50.797Z,970.24
2017-09-04T00:42:51.738Z,970.26
2017-09-04T00:43:52.424Z,970.28
2017-09-04T00:44:53.111Z,970.25
2017-09-04T00:45:53.800Z,970.27
2017-09-04T00:46:54.500Z,970.28
2017-09-04T00:47:55.428Z,970.32
2017-09-04T00:48:56.114Z,970.27
2017-09-04T00:49:56.807Z,970.27
2017-09-04T00:50:57.494Z,970.27
2017-09-04T00:51:58.180Z,970.24
2017-09-04T00:52:59.420Z,970.24
2017-09-04T00:54:00.115Z,970.25
2017-09-04T00:55:00.805Z,970.27
2017-09-04T00:56:01.492Z,970.23
2017-09-04T00:57:02.184Z,970.22
2017-09-04T00:58:03.122Z,970.24
2017-09-04T00:59:03.812Z,970.26
2017-09-04T01:00:04.511Z,970.24
2017-09-04T01:01:05.197Z,970.26
2017-09-04T01:02:05.882Z,970.29
2017-09-04T01:03:06.822Z,970.27
2017-09-04T01:04:07.513Z,970.28
2017-09-04T01:05:08.206Z,970.29
2017-09-04T01:06:08.906Z,970.27
2017-09-04T01:07:09.591Z,970.28
2017-09-04T01:08:10.526Z,970.30
2017-09-04T01:09:11.212Z,970.35
2017-09-04T01:10:11.897Z,970.36
2017-09-04T01:11:12.593Z,970.31
2017-09-04T01:12:13.278Z,970.33
2017-09-04T01:13:14.221Z,970.33
2017-09-04T01:14:14.905Z,970.32
2017-09-04T01:15:15.587Z,970.29
2017-09-04T01:16:16.276Z,970.30
2017-09-04T01:17:16.966Z,970.31
2017-09-04T01:18:17.653Z,970.27
2017-09-04T01:19:18.346Z,970.24
2017-09-04T01:20:19.038Z,970.29
2017-09-04T01:21:19.726Z,970.29
2017-09-04T01:22:20.419Z,970.30
2017-09-04T01:23:21.362Z,970.31
2017-09-04T01:24:22.049Z,970.31
2017-09-04T01:25:22.731Z,970.32
2017-09-04T01:26:23.423Z,970.35
2017-09-04T01:27:24.116Z,970.30
2017-09-04T01:28:25.040Z,970.32
2017-09-04T01:29:25.735Z,970.34
2017-09-04T01:30:26.420Z,970.36
2017-09-04T01:31:27.105Z,970.34
2017-09-04T01:32:27.795Z,970.34
2017-09-04T01:33:28.730Z,970.36
2017-09-04T01:34:29.416Z,970.37
2017-09-04T01:35:30.101Z,970.39
2017-09-04T01:36:30.786Z,970.34
2017-09-04T01:37:31.484Z,970.39
2017-09-04T01:38:32.420Z,970.37
2017-09-04T01:39:33.108Z,970.35
2017-09-04T01:40:33.793Z,970.40
2017-09-04T01:41:34.486Z,970.40
2017-09-04T01:42:35.168Z,970.43
2017-09-04T01:43:36.105Z,970.47
2017-09-04T01:44:36.792Z,970.47
2017-09-04T01:45:37.481Z,970.49
2017-09-04T01:46:38.172Z,970.47
2017-09-04T01:47:38.862Z,970.49
2017-09-04T01:48:39.800Z,970.47
2017-09-04T01:49:40.493Z,970.52
2017-09-04T01:50:41.183Z,970.48
2017-09-04T01:51:41.870Z,970.51
2017-09-04T01:52:42.556Z,970.48
2017-09-04T01:53:43.495Z,970.46
2017-09-04T01:54:44.181Z,970.47
2017-09-04T01:55:44.868Z,970.44
2017-09-04T01:56:45.560Z,970.45
2017-09-04T01:57:46.244Z,970.45
2017-09-04T01:58:46.981Z,970.48
2017-09-04T01:59:47.669Z,970.49
2017-09-04T02:00:48.357Z,970.48
2017-09-04T02:01:49.042Z,970.42
2017-09-04T02:02:49.727Z,970.46
2017-09-04T02:03:50.663Z,970.40
2017-09-04T02:04:51.351Z,970.43
2017-09-04T02:05:52.038Z,970.43
2017-09-04T02:06:52.725Z,970.46
2017-09-04T02:07:53.410Z,970.45
2017-09-04T02:08:54.353Z,970.46
2017-09-04T02:09:55.041Z,970.46
2017-09-04T02:10:55.728Z,970.39
2017-09-04T02:11:56.418Z,970.43
2017-09-04T02:12:57.108Z,970.45
2017-09-04T02:13:58.045Z,970.39
2017-09-04T02:14:58.731Z,970.40
2017-09-04T02:15:59.415Z,970.40
2017-09-04T02:17:00.097Z,970.39
2017-09-04T02:18:00.783Z,970.39
2017-09-04T02:19:01.725Z,970.38
2017-09-04T02:20:02.414Z,970.37
2017-09-04T02:21:03.099Z,970.38
2017-09-04T02:22:03.786Z,970.34
2017-09-04T02:23:04.472Z,970.34
2017-09-04T02:24:05.411Z,970.38
2017-09-04T02:25:06.099Z,970.36
2017-09-04T02:26:06.785Z,970.36
2017-09-04T02:27:07.473Z,970.37
2017-09-04T02:28:08.158Z,970.36
2017-09-04T02:29:08.846Z,970.37
2017-09-04T02:30:09.534Z,970.35
2017-09-04T02:31:10.217Z,970.37
2017-09-04T02:32:10.905Z,970.37
2017-09-04T02:33:11.594Z,970.39
2017-09-04T02:34:12.533Z,970.37
2017-09-04T02:35:13.217Z,970.39
2017-09-04T02:36:13.919Z,970.38
2017-09-04T02:37:14.613Z,970.33
2017-09-04T02:38:15.286Z,970.36
2017-09-04T02:39:16.232Z,970.36
2017-09-04T02:40:16.920Z,970.36
2017-09-04T02:41:17.614Z,970.37
2017-09-04T02:42:18.318Z,970.35
2017-09-04T02:43:19.008Z,970.34
2017-09-04T02:44:19.955Z,970.31
2017-09-04T02:45:20.632Z,970.32
2017-09-04T02:46:21.336Z,970.31
2017-09-04T02:47:22.025Z,970.32
2017-09-04T02:48:22.712Z,970.35
2017-09-04T02:49:23.659Z,970.35
2017-09-04T02:50:24.350Z,970.37
2017-09-04T02:51:25.037Z,970.34
2017-09-04T02:52:25.723Z,970.37
2017-09-04T02:53:26.409Z,970.37
2017-09-04T02:54:27.097Z,970.37
2017-09-04T02:55:27.789Z,970.37
2017-09-04T02:56:28.478Z,970.37
2017-09-04T02:57:29.163Z,970.35
2017-09-04T02:58:29.857Z,970.32
2017-09-04T02:59:30.798Z,970.33
2017-09-04T03:00:31.500Z,970.30
2017-09-04T03:01:32.181Z,970.32
2017-09-04T03:02:32.864Z,970.33
2017-09-04T03:03:33.554Z,970.31
2017-09-04T03:04:34.484Z,970.33
2017-09-04T03:05:35.178Z,970.34
2017-09-04T03:06:35.865Z,970.32
2017-09-04T03:07:36.552Z,970.30
2017-09-04T03:08:37.238Z,970.30
2017-09-04T03:09:38.175Z,970.28
2017-09-04T03:10:38.862Z,970.28
2017-09-04T03:11:39.562Z,970.23
2017-09-04T03:12:40.252Z,970.27
2017-09-04T03:13:40.939Z,970.28
2017-09-04T03:14:41.878Z,970.27
2017-09-04T03:15:42.567Z,970.25
2017-09-04T03:16:43.250Z,970.27
2017-09-04T03:17:43.938Z,970.26
2017-09-04T03:18:44.623Z,970.27
2017-09-04T03:19:45.612Z,970.26
2017-09-04T03:20:46.307Z,970.27
2017-09-04T03:21:46.993Z,970.24
2017-09-04T03:22:47.681Z,970.23
2017-09-04T03:23:48.374Z,970.25
2017-09-04T03:24:49.064Z,970.23
2017-09-04T03:25:49.792Z,970.24
2017-09-04T03:26:50.448Z,970.28
2017-09-04T03:27:51.141Z,970.26
2017-09-04T03:28:51.836Z,970.33
2017-09-04T03:29:52.780Z,970.29
2017-09-04T03:30:53.468Z,970.33
2017-09-04T03:31:54.157Z,970.34
2017-09-04T03:32:54.850Z,970.36
2017-09-04T03:33:55.542Z,970.41
2017-09-04T03:34:56.234Z,970.41
2017-09-04T03:35:56.925Z,970.40
2017-09-04T03:36:57.617Z,970.39
2017-09-04T03:37:58.310Z,970.43
2017-09-04T03:38:59.002Z,970.42
2017-09-04T03:39:59.939Z,970.38
2017-09-04T03:41:00.625Z,970.40
2017-09-04T03:42:01.311Z,970.41
2017-09-04T03:43:01.998Z,970.44
2017-09-04T03:44:02.687Z,970.43
2017-09-04T03:45:03.622Z,970.43
2017-09-04T03:46:04.314Z,970.44
2017-09-04T03:47:04.999Z,970.46
2017-09-04T03:48:05.686Z,970.46
2017-09-04T03:49:06.373Z,970.47
2017-09-04T03:50:07.311Z,970.46
2017-09-04T03:51:07.997Z,970.51
2017-09-04T03:52:08.688Z,970.48
2017-09-04T03:53:09.376Z,970.53
2017-09-04T03:54:10.061Z,970.52
2017-09-04T03:55:11.009Z,970.53
2017-09-04T03:56:11.700Z,970.51
2017-09-04T03:57:12.389Z,970.50
2017-09-04T03:58:13.076Z,970.52
2017-09-04T03:59:13.768Z,970.55
2017-09-04T04:00:14.709Z,970.58
2017-09-04T04:01:15.399Z,970.56
2017-09-04T04:02:16.084Z,970.58
2017-09-04T04:03:16.770Z,970.60
2017-09-04T04:04:17.461Z,970.58
2017-09-04T04:05:18.399Z,970.59
2017-09-04T04:06:19.089Z,970.59
2017-09-04T04:07:19.779Z,970.62
2017-09-04T04:08:20.464Z,970.61
2017-09-04T04:09:21.156Z,970.60
2017-09-04T04:10:22.092Z,970.62
2017-09-04T04:11:22.785Z,970.56
2017-09-04T04:12:23.471Z,970.58
2017-09-04T04:13:24.161Z,970.62
2017-09-04T04:14:24.847Z,970.61
2017-09-04T04:15:25.787Z,970.56
2017-09-04T04:16:26.475Z,970.59
2017-09-04T04:17:27.171Z,970.57
2017-09-04T04:18:27.858Z,970.61
2017-09-04T04:19:28.549Z,970.59
2017-09-04T04:20:29.481Z,970.61
2017-09-04T04:21:30.177Z,970.65
2017-09-04T04:22:30.871Z,970.61
2017-09-04T04:23:31.559Z,970.66
2017-09-04T04:24:32.245Z,970.63
2017-09-04T04:25:32.933Z,970.62
2017-09-04T04:26:33.624Z,970.66
2017-09-04T04:27:34.313Z,970.64
2017-09-04T04:28:35.010Z,970.66
2017-09-04T04:29:35.694Z,970.67
2017-09-04T04:30:36.633Z,970.62
2017-09-04T04:31:37.320Z,970.65
2017-09-04T04:32:38.014Z,970.64
2017-09-04T04:33:38.699Z,970.60
2017-09-04T04:34:39.391Z,970.65
2017-09-04T04:35:40.333Z,970.61
2017-09-04T04:36:41.028Z,970.60
2017-09-04T04:37:41.712Z,970.59
2017-09-04T04:38:42.408Z,970.58
2017-09-04T04:39:43.097Z,970.60
2017-09-04T04:40:43.785Z,970.57
2017-09-04T04:41:44.475Z,970.60
2017-09-04T04:42:45.163Z,970.60
2017-09-04T04:43:45.852Z,970.59
2017-09-04T04:44:46.538Z,970.57
2017-09-04T04:45:47.482Z,970.59
2017-09-04T04:46:48.171Z,970.61
2017-09-04T04:47:48.859Z,970.63
2017-09-04T04:48:49.555Z,970.59
2017-09-04T04:49:50.245Z,970.61
2017-09-04T04:50:51.181Z,970.62
2017-09-04T04:51:51.872Z,970.62
2017-09-04T04:52:52.562Z,970.65
2017-09-04T04:53:53.250Z,970.67
2017-09-04T04:54:53.944Z,970.64
2017-09-04T04:55:54.635Z,970.66
2017-09-04T04:56:55.327Z,970.65
2017-09-04T04:57:56.024Z,970.67
2017-09-04T04:58:56.717Z,970.67
2017-09-04T04:59:57.408Z,970.65
2017-09-04T05:00:58.098Z,970.66
2017-09-04T05:01:58.789Z,970.64
2017-09-04T05:02:59.484Z,970.66
2017-09-04T05:04:00.174Z,970.69
2017-09-04T05:05:00.864Z,970.70
2017-09-04T05:06:01.805Z,970.75
2017-09-04T05:07:02.492Z,970.71
2017-09-04T05:08:03.180Z,970.71
2017-09-04T05:09:03.871Z,970.76
2017-09-04T05:10:04.564Z,970.73
2017-09-04T05:11:05.505Z,970.72
2017-09-04T05:12:06.196Z,970.75
2017-09-04T05:13:06.894Z,970.72
2017-09-04T05:14:07.585Z,970.75
2017-09-04T05:15:08.282Z,970.73
2017-09-04T05:16:09.227Z,970.74
2017-09-04T05:17:09.921Z,970.71
2017-09-04T05:18:10.612Z,970.70
2017-09-04T05:19:11.299Z,970.72
2017-09-04T05:20:11.991Z,970.73
2017-09-04T05:21:12.932Z,970.73
2017-09-04T05:22:13.624Z,970.74
2017-09-04T05:23:14.317Z,970.75
2017-09-04T05:24:15.010Z,970.76
2017-09-04T05:25:15.700Z,970.78
2017-09-04T05:26:16.643Z,970.79
2017-09-04T05:27:17.333Z,970.78
2017-09-04T05:28:18.028Z,970.82
2017-09-04T05:29:18.719Z,970.80
2017-09-04T05:30:19.411Z,970.82
2017-09-04T05:31:20.352Z,970.83
2017-09-04T05:32:21.043Z,970.81
2017-09-04T05:33:21.735Z,970.85
2017-09-04T05:34:22.427Z,970.81
2017-09-04T05:35:23.121Z,970.79
2017-09-04T05:36:24.069Z,970.82
2017-09-04T05:37:24.768Z,970.82
2017-09-04T05:38:25.458Z,970.80
2017-09-04T05:39:26.149Z,970.82
2017-09-04T05:40:26.847Z,970.79
2017-09-04T05:41:27.793Z,970.81
2017-09-04T05:42:28.482Z,970.80
2017-09-04T05:43:29.189Z,970.78
2017-09-04T05:44:29.879Z,970.81
2017-09-04T05:45:30.571Z,970.81
2017-09-04T05:46:31.511Z,970.85
2017-09-04T05:47:32.203Z,970.89
2017-09-04T05:48:32.894Z,970.88
2017-09-04T05:49:33.586Z,970.89
2017-09-04T05:50:34.281Z,970.91
2017-09-04T05:51:35.221Z,970.90
2017-09-04T05:52:35.914Z,970.90
2017-09-04T05:53:36.606Z,970.92
2017-09-04T05:54:37.296Z,970.95
2017-09-04T05:55:37.987Z,970.94
2017-09-04T05:56:38.935Z,970.95
2017-09-04T05:57:39.634Z,970.93
2017-09-04T05:58:40.323Z,970.92
2017-09-04T05:59:41.010Z,970.96
2017-09-04T06:00:41.703Z,970.93
2017-09-04T06:01:42.646Z,970.95
2017-09-04T06:02:43.341Z,970.96
2017-09-04T06:03:44.032Z,970.98
2017-09-04T06:04:44.725Z,970.97
2017-09-04T06:05:45.417Z,971.02
2017-09-04T06:06:46.358Z,971.01
2017-09-04T06:07:47.047Z,971.01
2017-09-04T06:08:47.738Z,971.01
2017-09-04T06:09:48.430Z,971.06
2017-09-04T06:10:49.117Z,971.04
2017-09-04T06:11:50.110Z,971.10
2017-09-04T06:12:50.803Z,971.08
2017-09-04T06:13:51.496Z,971.10
2017-09-04T06:14:52.195Z,971.04
2017-09-04T06:15:52.897Z,971.14
2017-09-04T06:16:53.844Z,971.12
2017-09-04T06:17:54.531Z,971.14
2017-09-04T06:18:55.221Z,971.17
2017-09-04T06:19:55.908Z,971.13
2017-09-04T06:20:56.594Z,971.14
2017-09-04T06:21:57.536Z,971.17
2017-09-04T06:22:58.228Z,971.12
2017-09-04T06:23:58.925Z,971.14
2017-09-04T06:24:59.616Z,971.15
2017-09-04T06:26:00.309Z,971.19
2017-09-04T06:27:01.002Z,971.17
2017-09-04T06:28:01.691Z,971.19
2017-09-04T06:29:02.380Z,971.20
2017-09-04T06:30:03.073Z,971.23
2017-09-04T06:31:03.775Z,971.21
2017-09-04T06:32:04.716Z,971.27
2017-09-04T06:33:05.417Z,971.26
2017-09-04T06:34:06.104Z,971.27
2017-09-04T06:35:06.803Z,971.27
2017-09-04T06:36:07.493Z,971.24
2017-09-04T06:37:08.439Z,971.24
2017-09-04T06:38:09.137Z,971.27
2017-09-04T06:39:09.829Z,971.28
2017-09-04T06:40:10.522Z,971.30
2017-09-04T06:41:11.213Z,971.28
2017-09-04T06:42:12.157Z,971.34
2017-09-04T06:43:12.850Z,971.34
2017-09-04T06:44:13.548Z,971.35
2017-09-04T06:45:14.242Z,971.36
2017-09-04T06:46:14.928Z,971.37
2017-09-04T06:47:15.869Z,971.40
2017-09-04T06:48:16.561Z,971.38
2017-09-04T06:49:17.253Z,971.42
2017-09-04T06:50:17.942Z,971.42
2017-09-04T06:51:18.643Z,971.40
2017-09-04T06:52:19.584Z,971.43
2017-09-04T06:53:20.276Z,971.44
2017-09-04T06:54:20.967Z,971.43
2017-09-04T06:55:21.662Z,971.44
2017-09-04T06:56:22.353Z,971.46
2017-09-04T06:57:23.295Z,971.44
2017-09-04T06:58:23.989Z,971.47
2017-09-04T06:59:24.680Z,971.45
2017-09-04T07:00:25.380Z,971.48
2017-09-04T07:01:26.074Z,971.50
2017-09-04T07:02:27.023Z,971.49
2017-09-04T07:03:27.716Z,971.49
2017-09-04T07:04:28.409Z,971.49
2017-09-04T07:05:29.098Z,971.51
2017-09-04T07:06:29.791Z,971.52
2017-09-04T07:07:30.734Z,971.52
2017-09-04T07:08:31.428Z,971.50
2017-09-04T07:09:32.127Z,971.50
2017-09-04T07:10:32.817Z,971.48
2017-09-04T07:11:33.510Z,971.51
2017-09-04T07:12:34.461Z,971.52
2017-09-04T07:13:35.154Z,971.50
2017-09-04T07:14:35.850Z,971.53
2017-09-04T07:15:36.546Z,971.51
2017-09-04T07:16:37.243Z,971.55
2017-09-04T07:17:38.184Z,971.53
2017-09-04T07:18:38.874Z,971.61
2017-09-04T07:19:39.564Z,971.58
2017-09-04T07:20:40.259Z,971.56
2017-09-04T07:21:40.955Z,971.59
2017-09-04T07:22:41.654Z,971.62
2017-09-04T07:23:42.346Z,971.59
2017-09-04T07:24:43.043Z,971.65
2017-09-04T07:25:43.731Z,971.65
2017-09-04T07:26:44.429Z,971.66
2017-09-04T07:27:45.372Z,971.65
2017-09-04T07:28:46.061Z,971.69
2017-09-04T07:29:46.762Z,971.69
2017-09-04T07:30:47.455Z,971.66
2017-09-04T07:31:48.150Z,971.61
2017-09-04T07:32:49.091Z,971.61
2017-09-04T07:33:49.787Z,971.60
2017-09-04T07:34:50.480Z,971.60
2017-09-04T07:35:51.175Z,971.60
2017-09-04T07:36:51.867Z,971.57
2017-09-04T07:37:52.808Z,971.60
2017-09-04T07:38:53.500Z,971.62
2017-09-04T07:39:54.196Z,971.63
2017-09-04T07:40:54.851Z,971.68
2017-09-04T07:41:55.578Z,971.68
2017-09-04T07:42:56.524Z,971.71
2017-09-04T07:43:57.220Z,971.72
2017-09-04T07:44:57.914Z,971.70
2017-09-04T07:45:58.606Z,971.71
2017-09-04T07:46:59.299Z,971.74
2017-09-04T07:48:00.251Z,971.75
2017-09-04T07:49:00.944Z,971.79
2017-09-04T07:50:01.640Z,971.74
2017-09-04T07:51:02.334Z,971.75
2017-09-04T07:52:03.024Z,971.78
2017-09-04T07:53:03.969Z,971.79
2017-09-04T07:54:04.662Z,971.78
2017-09-04T07:55:05.351Z,971.80
2017-09-04T07:56:06.049Z,971.79
2017-09-04T07:57:06.743Z,971.82
2017-09-04T07:58:07.435Z,971.83
2017-09-04T07:59:08.138Z,971.83
2017-09-04T08:00:08.830Z,971.83
2017-09-04T08:01:09.527Z,971.88
2017-09-04T08:02:10.225Z,971.88
2017-09-04T08:03:11.170Z,971.86
2017-09-04T08:04:11.866Z,971.87
2017-09-04T08:05:12.561Z,971.88
2017-09-04T08:06:13.257Z,971.89
2017-09-04T08:07:13.955Z,971.94
2017-09-04T08:08:14.897Z,971.95
2017-09-04T08:09:15.591Z,971.94
2017-09-04T08:10:16.284Z,971.95
2017-09-04T08:11:16.978Z,971.91
2017-09-04T08:12:17.671Z,971.94
2017-09-04T08:13:18.636Z,971.91
2017-09-04T08:14:19.328Z,971.93
2017-09-04T08:15:20.022Z,971.95
2017-09-04T08:16:20.720Z,971.95
2017-09-04T08:17:21.414Z,971.92
2017-09-04T08:18:22.363Z,971.93
2017-09-04T08:19:23.059Z,971.93
2017-09-04T08:20:23.751Z,971.90
2017-09-04T08:21:24.444Z,971.90
2017-09-04T08:22:25.135Z,971.90
2017-09-04T08:23:26.079Z,971.92
2017-09-04T08:24:26.775Z,971.92
2017-09-04T08:25:27.468Z,971.92
2017-09-04T08:26:28.158Z,971.97
2017-09-04T08:27:28.852Z,971.92
2017-09-04T08:28:29.800Z,971.93
2017-09-04T08:29:30.486Z,971.94
2017-09-04T08:30:31.174Z,971.93
2017-09-04T08:31:31.870Z,971.97
2017-09-04T08:32:32.564Z,971.93
2017-09-04T08:33:33.506Z,971.96
2017-09-04T08:34:34.205Z,971.94
2017-09-04T08:35:34.898Z,971.95
2017-09-04T08:36:35.588Z,971.95
2017-09-04T08:37:36.297Z,971.95
2017-09-04T08:38:37.248Z,971.93
2017-09-04T08:39:37.928Z,971.98
2017-09-04T08:40:38.639Z,972.01
2017-09-04T08:41:39.332Z,972.02
2017-09-04T08:42:40.026Z,972.05
2017-09-04T08:43:40.986Z,972.04
2017-09-04T08:44:41.677Z,972.06
2017-09-04T08:45:42.367Z,972.06
2017-09-04T08:46:43.066Z,972.07
2017-09-04T08:47:43.768Z,972.11
2017-09-04T08:48:44.714Z,972.10
2017-09-04T08:49:45.407Z,972.12
2017-09-04T08:50:46.112Z,972.13
2017-09-04T08:51:46.808Z,972.13
2017-09-04T08:52:47.506Z,972.14
2017-09-04T08:53:48.194Z,972.19
2017-09-04T08:54:48.891Z,972.16
2017-09-04T08:55:49.591Z,972.15
2017-09-04T08:56:50.289Z,972.18
2017-09-04T08:57:50.982Z,972.19
2017-09-04T08:58:51.934Z,972.19
2017-09-04T08:59:52.626Z,972.18
2017-09-04T09:00:53.329Z,972.17
2017-09-04T09:01:54.024Z,972.17
2017-09-04T09:02:54.718Z,972.20
2017-09-04T09:03:55.663Z,972.14
2017-09-04T09:04:56.359Z,972.14
2017-09-04T09:05:57.054Z,972.11
2017-09-04T09:06:57.755Z,972.13
2017-09-04T09:07:58.450Z,972.13
2017-09-04T09:08:59.393Z,972.14
2017-09-04T09:10:00.083Z,972.18
2017-09-04T09:11:00.783Z,972.16
2017-09-04T09:12:01.473Z,972.18
2017-09-04T09:13:02.171Z,972.17
2017-09-04T09:14:03.116Z,972.18
2017-09-04T09:15:03.810Z,972.23
2017-09-04T09:16:04.505Z,972.19
2017-09-04T09:17:05.198Z,972.19
2017-09-04T09:18:05.893Z,972.18
2017-09-04T09:19:06.836Z,972.19
2017-09-04T09:20:07.528Z,972.22
2017-09-04T09:21:08.227Z,972.24
2017-09-04T09:22:08.929Z,972.21
2017-09-04T09:23:09.627Z,972.23
2017-09-04T09:24:10.564Z,972.22
2017-09-04T09:25:11.291Z,972.25
2017-09-04T09:26:11.986Z,972.31
2017-09-04T09:27:12.683Z,972.32
2017-09-04T09:28:13.377Z,972.33
2017-09-04T09:29:14.070Z,972.34
2017-09-04T09:30:14.769Z,972.37
2017-09-04T09:31:15.465Z,972.35
2017-09-04T09:32:16.155Z,972.35
2017-09-04T09:33:16.856Z,972.38
2017-09-04T09:34:17.796Z,972.41
2017-09-04T09:35:18.500Z,972.43
2017-09-04T09:36:19.198Z,972.46
2017-09-04T09:37:19.902Z,972.47
2017-09-04T09:38:20.602Z,972.44
2017-09-04T09:39:21.553Z,972.45
2017-09-04T09:40:22.242Z,972.47
2017-09-04T09:41:22.938Z,972.46
2017-09-04T09:42:23.635Z,972.49
2017-09-04T09:43:24.329Z,972.49
2017-09-04T09:44:25.275Z,972.47
2017-09-04T09:45:25.973Z,972.50
2017-09-04T09:46:26.667Z,972.52
2017-09-04T09:47:27.367Z,972.52
2017-09-04T09:48:28.062Z,972.50
2017-09-04T09:49:29.006Z,972.51
2017-09-04T09:50:29.700Z,972.52
2017-09-04T09:51:30.396Z,972.53
2017-09-04T09:52:31.093Z,972.53
2017-09-04T09:53:31.785Z,972.55
2017-09-04T09:54:32.731Z,972.54
2017-09-04T09:55:33.424Z,972.57
2017-09-04T09:56:34.118Z,972.56
2017-09-04T09:57:34.818Z,972.59
2017-09-04T09:58:35.513Z,972.54
2017-09-04T09:59:36.463Z,972.59
2017-09-04T10:00:37.157Z,972.59
2017-09-04T10:01:37.856Z,972.59
2017-09-04T10:02:38.552Z,972.61
2017-09-04T10:03:39.245Z,972.60
2017-09-04T10:04:40.204Z,972.59
2017-09-04T10:05:40.883Z,972.57
2017-09-04T10:06:41.579Z,972.57
2017-09-04T10:07:42.271Z,972.60
2017-09-04T10:08:42.963Z,972.55
2017-09-04T10:09:43.911Z,972.57
2017-09-04T10:10:44.608Z,972.58
2017-09-04T10:11:45.315Z,972.63
2017-09-04T10:12:46.018Z,972.59
2017-09-04T10:13:46.712Z,972.60
2017-09-04T10:14:47.438Z,972.55
2017-09-04T10:15:48.102Z,972.58
2017-09-04T10:16:48.793Z,972.57
2017-09-04T10:17:49.485Z,972.60
2017-09-04T10:18:50.179Z,972.60
2017-09-04T10:19:51.124Z,972.59
2017-09-04T10:20:51.822Z,972.59
2017-09-04T10:21:52.519Z,972.53
2017-09-04T10:22:53.213Z,972.52
2017-09-04T10:23:53.910Z,972.52
2017-09-04T10:24:54.854Z,972.55
2017-09-04T10:25:55.551Z,972.56
2017-09-04T10:26:56.251Z,972.59
2017-09-04T10:27:56.945Z,972.57
2017-09-04T10:28:57.661Z,972.61
2017-09-04T10:29:58.596Z,972.61
2017-09-04T10:30:59.292Z,972.59
2017-09-04T10:32:00.006Z,972.60
2017-09-04T10:33:00.930Z,972.63
2017-09-04T10:34:01.628Z,972.60
2017-09-04T10:35:02.574Z,972.64
2017-09-04T10:36:03.276Z,972.61
2017-09-04T10:37:03.980Z,972.64
2017-09-04T10:38:04.675Z,972.61
2017-09-04T10:39:05.369Z,972.67
2017-09-04T10:40:06.311Z,972.66
2017-09-04T10:41:07.017Z,972.67
2017-09-04T10:42:07.713Z,972.62
2017-09-04T10:43:08.407Z,972.66
2017-09-04T10:44:09.104Z,972.67
2017-09-04T10:45:10.049Z,972.60
2017-09-04T10:46:10.751Z,972.62
2017-09-04T10:47:11.449Z,972.62
2017-09-04T10:48:12.145Z,972.64
2017-09-04T10:49:12.839Z,972.64
2017-09-04T10:50:13.786Z,972.64
2017-09-04T10:51:14.480Z,972.66
2017-09-04T10:52:15.184Z,972.69
2017-09-04T10:53:15.873Z,972.64
2017-09-04T10:54:16.569Z,972.71
2017-09-04T10:55:17.516Z,972.64
2017-09-04T10:56:18.219Z,972.67
2017-09-04T10:57:18.926Z,972.65
2017-09-04T10:58:19.619Z,972.69
2017-09-04T10:59:20.318Z,972.71
2017-09-04T11:00:21.013Z,972.69
2017-09-04T11:01:21.727Z,972.74
2017-09-04T11:02:22.421Z,972.72
2017-09-04T11:03:23.116Z,972.74
2017-09-04T11:04:23.817Z,972.69
2017-09-04T11:05:24.765Z,972.67
2017-09-04T11:06:25.487Z,972.68
2017-09-04T11:07:26.170Z,972.70
2017-09-04T11:08:26.869Z,972.66
2017-09-04T11:09:27.564Z,972.59
2017-09-04T11:10:28.514Z,972.63
2017-09-04T11:11:29.208Z,972.59
2017-09-04T11:12:29.922Z,972.61
2017-09-04T11:13:30.603Z,972.62
2017-09-04T11:14:31.294Z,972.60
2017-09-04T11:15:32.242Z,972.60
2017-09-04T11:16:32.939Z,972.58
2017-09-04T11:17:33.632Z,972.59
2017-09-04T11:18:34.328Z,972.61
2017-09-04T11:19:35.027Z,972.59
2017-09-04T11:20:35.971Z,972.56
2017-09-04T11:21:36.669Z,972.56
2017-09-04T11:22:37.363Z,972.59
2017-09-04T11:23:38.060Z,972.61
2017-09-04T11:24:38.755Z,972.62
2017-09-04T11:25:39.702Z,972.64
2017-09-04T11:26:40.396Z,972.62
2017-09-04T11:27:41.089Z,972.63
2017-09-04T11:28:41.789Z,972.63
2017-09-04T11:29:42.483Z,972.62
2017-09-04T11:30:43.442Z,972.66
2017-09-04T11:31:44.136Z,972.67
2017-09-04T11:32:44.836Z,972.63
2017-09-04T11:33:45.547Z,972.69
2017-09-04T11:34:46.245Z,972.64
2017-09-04T11:35:47.199Z,972.67
2017-09-04T11:36:47.904Z,972.66
2017-09-04T11:37:48.607Z,972.66
2017-09-04T11:38:49.303Z,972.68
2017-09-04T11:39:49.999Z,972.66
2017-09-04T11:40:50.946Z,972.68
2017-09-04T11:41:51.647Z,972.67
2017-09-04T11:42:52.348Z,972.73
2017-09-04T11:43:53.045Z,972.74
2017-09-04T11:44:53.752Z,972.76
2017-09-04T11:45:54.705Z,972.73
2017-09-04T11:46:55.412Z,972.70
2017-09-04T11:47:56.114Z,972.72
2017-09-04T11:48:56.817Z,972.65
2017-09-04T11:49:57.519Z,972.70
2017-09-04T11:50:58.471Z,972.69
2017-09-04T11:51:59.181Z,972.69
2017-09-04T11:52:59.886Z,972.64
2017-09-04T11:54:00.587Z,972.62
2017-09-04T11:55:01.291Z,972.65
2017-09-04T11:56:02.244Z,972.64
2017-09-04T11:57:02.948Z,972.64
2017-09-04T11:58:03.649Z,972.70
2017-09-04T11:59:04.352Z,972.65
2017-09-04T12:00:05.059Z,972.72
2017-09-04T12:01:06.017Z,972.71
2017-09-04T12:02:06.723Z,972.73
2017-09-04T12:03:07.426Z,972.69
2017-09-04T12:04:08.126Z,972.74
2017-09-04T12:05:08.842Z,972.77
2017-09-04T12:06:09.799Z,972.78
2017-09-04T12:07:10.504Z,972.81
2017-09-04T12:08:11.214Z,972.80
2017-09-04T12:09:11.918Z,972.82
2017-09-04T12:10:12.628Z,972.85
2017-09-04T12:11:13.588Z,972.85
2017-09-04T12:12:14.292Z,972.82
2017-09-04T12:13:14.996Z,972.83
2017-09-04T12:14:15.707Z,972.89
2017-09-04T12:15:16.425Z,972.93
2017-09-04T12:16:17.381Z,972.97
2017-09-04T12:17:18.089Z,972.97
2017-09-04T12:18:18.793Z,972.92
2017-09-04T12:19:19.501Z,972.92
2017-09-04T12:20:20.209Z,972.90
2017-09-04T12:21:21.170Z,972.91
2017-09-04T12:22:21.885Z,972.88
2017-09-04T12:23:22.593Z,972.87
2017-09-04T12:24:23.302Z,972.85
2017-09-04T12:25:24.010Z,972.92
2017-09-04T12:26:24.968Z,972.92
2017-09-04T12:27:25.673Z,972.93
2017-09-04T12:28:26.380Z,972.98
2017-09-04T12:29:27.086Z,972.93
2017-09-04T12:30:27.796Z,972.90
2017-09-04T12:31:28.514Z,972.87
2017-09-04T12:32:29.220Z,972.92
2017-09-04T12:33:29.936Z,972.83
2017-09-04T12:34:30.654Z,972.85
2017-09-04T12:35:31.362Z,972.84
2017-09-04T12:36:32.337Z,972.88
2017-09-04T12:37:33.053Z,972.85